Time;durP1;ratioP1;P1;durP2;ratioP2;P2;SDS_P1;SDS_P2;PMS_P1;PMS_P2;Temp;Humidity;BMP_temperature;BMP_pressure;BME280_temperature;BME280_humidity;BME280_pressure;Samples;Min_cycle;Max_cycle;Signal;HPM_P1;HPM_P2
2022/08/21 00:00:38;;;;;;;15.57;6.07;;;;;;;21.56;70.79;100160.66;1776001;80;21542;-70
2022/08/21 00:03:07;;;;;;;18.10;7.13;;;;;;;21.53;70.97;100164.05;1776017;80;21057;-71
2022/08/21 00:05:38;;;;;;;17.00;6.20;;;;;;;21.48;71.10;100166.41;1775414;80;21147;-71
2022/08/21 00:08:05;;;;;;;16.13;6.30;;;;;;;21.45;71.23;100164.94;1775537;79;21518;-70
2022/08/21 00:10:32;;;;;;;18.23;5.87;;;;;;;21.46;71.29;100168.69;1775504;80;21027;-70
2022/08/21 00:13:02;;;;;;;18.87;6.27;;;;;;;21.63;70.85;100172.31;1776153;80;21046;-70
2022/08/21 00:15:30;;;;;;;17.27;6.50;;;;;;;21.46;71.28;100174.70;1776035;79;21505;-71
2022/08/21 00:17:56;;;;;;;19.23;6.93;;;;;;;21.05;72.59;100173.70;1776622;79;21687;-70
2022/08/21 00:20:23;;;;;;;17.93;6.60;;;;;;;20.99;72.99;100172.32;1775262;80;21051;-71
2022/08/21 00:22:50;;;;;;;19.17;6.60;;;;;;;20.97;73.17;100170.53;1775471;80;21054;-71
2022/08/21 00:25:16;;;;;;;17.50;6.27;;;;;;;20.93;73.33;100172.33;1775833;80;21069;-71
2022/08/21 00:27:45;;;;;;;17.27;6.50;;;;;;;20.95;73.23;100174.92;1776771;80;21035;-71
2022/08/21 00:30:14;;;;;;;18.13;6.37;;;;;;;20.81;73.72;100177.94;1780342;80;22034;-70
2022/08/21 00:32:41;;;;;;;16.80;6.77;;;;;;;20.78;73.98;100171.83;1775565;80;20992;-72
2022/08/21 00:35:11;;;;;;;20.23;6.20;;;;;;;20.77;74.16;100173.53;1775747;80;21154;-71
2022/08/21 00:37:39;;;;;;;18.30;7.10;;;;;;;20.76;74.27;100180.88;1775460;80;21526;-70
2022/08/21 00:40:10;;;;;;;16.00;6.07;;;;;;;20.77;74.40;100187.09;1775879;80;21545;-70
2022/08/21 00:42:37;;;;;;;24.70;7.75;;;;;;;20.78;74.41;100177.25;1775646;80;21158;-70
2022/08/21 00:45:06;;;;;;;17.37;5.80;;;;;;;20.76;74.41;100180.88;1775566;80;21063;-70
2022/08/21 00:47:33;;;;;;;15.50;5.40;;;;;;;;;;1773970;80;21581;-70
2022/08/21 00:50:00;;;;;;;21.93;7.07;;;;;;;21.17;72.86;100180.52;1776104;80;21169;-70
2022/08/21 00:52:31;;;;;;;17.10;6.40;;;;;;;21.14;72.74;100177.69;1778195;80;20988;-71
2022/08/21 00:54:57;;;;;;;16.57;5.93;;;;;;;21.15;72.65;100184.13;1783074;80;21766;-70
2022/08/21 00:57:32;;;;;;;18.77;7.20;;;;;;;21.11;72.63;100188.65;1782694;80;21570;-70
2022/08/21 01:00:00;;;;;;;18.13;6.17;;;;;;;21.10;72.64;100184.92;1781651;80;21034;-70
2022/08/21 01:02:26;;;;;;;17.67;5.60;;;;;;;21.24;72.22;100182.11;1775891;80;21097;-70
2022/08/21 01:04:53;;;;;;;21.17;6.20;;;;;;;21.10;72.56;100180.85;1778951;80;21069;-70
2022/08/21 01:07:20;;;;;;;18.40;5.97;;;;;;;21.06;72.75;100178.80;1788723;78;21555;-70
2022/08/21 01:09:47;;;;;;;16.63;5.73;;;;;;;21.06;72.78;100177.45;1727098;80;21541;-72
2022/08/21 01:12:14;;;;;;;19.97;6.37;;;;;;;21.06;72.76;100185.59;1775558;80;21069;-71
2022/08/21 01:14:42;;;;;;;23.53;6.57;;;;;;;21.03;72.79;100184.91;1789072;79;21486;-71
2022/08/21 01:17:10;;;;;;;18.80;6.67;;;;;;;21.02;72.81;100180.59;1755130;81;21058;-70
2022/08/21 01:19:37;;;;;;;17.13;6.33;;;;;;;21.01;72.79;100181.72;1775348;80;21250;-71
2022/08/21 01:22:04;;;;;;;13.00;5.80;;;;;;;20.97;72.84;100173.23;1782065;80;21419;-70
2022/08/21 01:24:31;;;;;;;20.73;6.20;;;;;;;20.95;72.91;100176.27;1780834;80;20995;-72
2022/08/21 01:26:59;;;;;;;20.57;6.40;;;;;;;20.94;72.89;100177.98;1780028;80;20990;-71
2022/08/21 01:29:38;;;;;;;16.60;6.30;;;;;;;21.03;72.66;100184.91;1776071;80;21569;-71
2022/08/21 01:32:10;;;;;;;18.93;6.03;;;;;;;21.12;72.31;100178.00;1774010;80;22205;-71
2022/08/21 01:34:40;;;;;;;17.50;6.53;;;;;;;21.10;72.17;100177.56;1776093;80;21059;-69
2022/08/21 01:37:07;;;;;;;16.57;6.17;;;;;;;20.94;72.66;100187.48;1785836;78;20991;-71
2022/08/21 01:39:33;;;;;;;17.57;6.23;;;;;;;;;;1753502;81;21031;-71
2022/08/21 01:42:00;;;;;;;18.27;6.30;;;;;;;21.18;71.98;100180.73;1769309;78;21039;-71
2022/08/21 01:44:27;;;;;;;17.33;6.50;;;;;;;21.23;71.84;100182.45;1790406;78;21734;-70
2022/08/21 01:46:55;;;;;;;16.20;6.20;;;;;;;21.26;71.73;100180.42;1787774;79;21071;-70
2022/08/21 01:49:21;;;;;;;16.97;5.93;;;;;;;21.31;71.68;100176.90;1754864;81;21008;-71
2022/08/21 01:51:48;;;;;;;17.73;6.10;;;;;;;21.32;71.54;100176.33;1760161;80;21134;-70
2022/08/21 01:54:14;;;;;;;17.27;6.03;;;;;;;21.30;71.50;100178.04;1763090;80;21896;-71
2022/08/21 01:56:45;;;;;;;16.47;6.00;;;;;;;21.35;71.50;100170.25;1774926;80;21481;-71
2022/08/21 01:59:12;;;;;;;16.07;5.50;;;;;;;21.40;71.29;100162.46;1775775;80;21038;-71
2022/08/21 02:01:44;;;;;;;21.30;6.23;;;;;;;21.37;71.15;100161.78;1773133;80;20991;-71
2022/08/21 02:04:08;;;;;;;20.13;6.10;;;;;;;21.37;71.09;100159.06;1772068;80;21019;-71
2022/08/21 02:06:35;;;;;;;16.87;5.77;;;;;;;21.39;71.06;100159.50;1775609;80;20952;-71
2022/08/21 02:09:04;;;;;;;18.47;6.10;;;;;;;21.38;70.98;100153.84;1774051;80;21542;-71
2022/08/21 02:11:31;;;;;;;15.97;5.93;;;;;;;21.40;71.02;100157.03;1776437;80;21122;-71
2022/08/21 02:13:58;;;;;;;18.67;6.30;;;;;;;21.42;71.00;100153.39;1775351;80;21061;-70
2022/08/21 02:16:25;;;;;;;18.87;6.60;;;;;;;21.45;70.85;100160.86;1775880;80;21084;-71
2022/08/21 02:18:51;;;;;;;19.37;6.40;;;;;;;21.44;70.71;100161.43;1775807;80;21057;-71
2022/08/21 02:21:20;;;;;;;22.67;6.80;;;;;;;21.40;70.62;100165.97;1776088;80;21146;-70
2022/08/21 02:23:46;;;;;;;19.80;6.70;;;;;;;21.38;70.57;100168.79;1775668;80;21062;-71
2022/08/21 02:26:13;;;;;;;17.43;6.07;;;;;;;21.38;70.64;100169.58;1775805;80;21059;-70
2022/08/21 02:28:42;;;;;;;16.57;5.47;;;;;;;21.46;70.68;100165.19;1775901;80;21054;-70
2022/08/21 02:31:09;;;;;;;15.67;5.63;;;;;;;21.54;70.57;100162.33;1775572;80;21206;-70
2022/08/21 02:33:36;;;;;;;18.40;6.23;;;;;;;21.60;70.30;100166.20;1781088;80;21910;-70
2022/08/21 02:36:03;;;;;;;20.50;6.03;;;;;;;21.61;70.02;100166.41;1789380;79;21042;-70
2022/08/21 02:38:34;;;;;;;15.93;6.23;;;;;;;21.62;69.87;100171.53;1766258;79;21045;-70
2022/08/21 02:41:01;;;;;;;16.93;6.03;;;;;;;21.58;69.72;100165.16;1754892;81;21482;-70
2022/08/21 02:43:27;;;;;;;19.00;5.77;;;;;;;21.51;69.62;100165.73;1776154;80;21074;-70
2022/08/21 02:45:55;;;;;;;14.97;6.00;;;;;;;21.41;69.66;100172.98;1787297;79;21146;-71
2022/08/21 02:48:26;;;;;;;18.73;5.30;;;;;;;21.33;69.83;100170.36;1774232;80;21116;-71
2022/08/21 02:50:59;;;;;;;19.52;6.00;;;;;;;21.22;70.07;100169.98;1778229;80;21499;-71
2022/08/21 02:53:27;;;;;;;18.63;5.80;;;;;;;21.16;70.12;100168.08;1780471;80;20960;-68
2022/08/21 02:55:53;;;;;;;18.10;5.73;;;;;;;21.10;70.28;100172.13;1780431;80;21054;-71
2022/08/21 02:58:27;;;;;;;18.90;5.73;;;;;;;21.06;70.41;100173.38;1780225;80;21622;-69
2022/08/21 03:00:54;;;;;;;14.30;4.80;;;;;;;21.04;70.47;100174.27;1779413;80;20928;-69
2022/08/21 03:03:21;;;;;;;17.93;5.90;;;;;;;21.05;70.52;100173.70;1780125;80;21087;-69
2022/08/21 03:05:48;;;;;;;14.47;5.50;;;;;;;20.99;70.67;100171.78;1775613;80;21212;-70
2022/08/21 03:08:15;;;;;;;15.40;5.67;;;;;;;20.98;70.70;100170.74;1773067;80;21050;-71
2022/08/21 03:10:47;;;;;;;13.93;5.10;;;;;;;21.01;70.55;100171.44;1772772;80;21502;-71
2022/08/21 03:13:15;;;;;;;13.13;4.80;;;;;;;21.02;70.49;100171.66;1773021;80;21118;-70
2022/08/21 03:15:42;;;;;;;18.27;5.43;;;;;;;21.01;70.36;100172.22;1789512;78;21027;-72
2022/08/21 03:18:10;;;;;;;14.67;5.50;;;;;;;21.01;70.29;100176.30;1789058;78;21077;-71
2022/08/21 03:20:38;;;;;;;21.63;4.93;;;;;;;21.01;70.17;100178.22;1788877;78;21037;-71
2022/08/21 03:23:05;;;;;;;23.10;5.70;;;;;;;20.97;70.24;100186.81;1782738;79;21129;-71
2022/08/21 03:25:32;;;;;;;22.07;5.77;;;;;;;20.88;70.46;100185.54;1780325;79;21208;-70
2022/08/21 03:28:01;;;;;;;16.53;5.43;;;;;;;20.95;70.24;100190.42;1779466;80;21082;-71
2022/08/21 03:30:28;;;;;;;14.57;5.80;;;;;;;20.97;69.96;100188.17;1781971;80;21042;-71
2022/08/21 03:32:54;;;;;;;15.73;5.87;;;;;;;20.83;70.14;100189.27;1778141;80;21649;-70
2022/08/21 03:35:21;;;;;;;18.03;5.43;;;;;;;20.91;69.95;100192.22;1776626;80;21143;-70
2022/08/21 03:37:48;;;;;;;17.97;5.43;;;;;;;20.91;69.82;100197.09;1778490;80;21127;-71
2022/08/21 03:40:17;;;;;;;17.07;5.50;;;;;;;20.92;69.81;100189.73;1767715;80;21063;-71
2022/08/21 03:42:46;;;;;;;13.77;5.00;;;;;;;20.94;69.73;100193.70;1779963;80;21014;-71
2022/08/21 03:45:15;;;;;;;19.27;5.13;;;;;;;20.92;69.59;100193.23;1774967;80;21517;-70
2022/08/21 03:48:01;;;;;;;19.10;5.67;;;;;;;20.88;69.56;100196.39;1776141;80;22150;-69
2022/08/21 03:50:33;;;;;;;20.10;5.70;;;;;;;20.87;69.58;100206.25;1773777;80;21694;-70
2022/08/21 03:52:59;;;;;;;15.60;5.12;;;;;;;20.87;69.45;100200.25;1775394;80;21038;-70
2022/08/21 03:55:26;;;;;;;17.13;5.23;;;;;;;20.90;69.27;100200.15;1776703;80;21050;-71
2022/08/21 03:57:53;;;;;;;15.63;5.33;;;;;;;20.75;69.55;100199.63;1774402;80;20995;-70
2022/08/21 04:00:20;;;;;;;18.20;5.30;;;;;;;20.70;69.78;100197.70;1776057;80;21807;-71
2022/08/21 04:02:48;;;;;;;19.03;5.20;;;;;;;20.71;69.68;100200.08;1778224;80;20944;-70
2022/08/21 04:05:26;;;;;;;21.37;5.50;;;;;;;20.76;69.58;100203.13;1780739;80;21415;-69
2022/08/21 04:07:45;;;;;;;14.57;4.93;;;;;;;20.82;69.43;100199.09;1777349;80;21035;-69
2022/08/21 04:10:11;;;;;;;14.27;4.93;;;;;;;20.88;69.13;100201.03;1780007;80;21057;-70
2022/08/21 04:12:38;;;;;;;21.30;5.10;;;;;;;20.93;69.00;100200.84;1777820;80;21141;-70
2022/08/21 04:15:06;;;;;;;14.90;4.80;;;;;;;20.98;68.65;100200.04;1775416;80;21439;-71
2022/08/21 04:17:32;;;;;;;14.07;5.03;;;;;;;21.02;68.45;100211.81;1775518;80;21482;-71
2022/08/21 04:19:59;;;;;;;16.00;4.67;;;;;;;21.06;68.30;100205.17;1774559;80;21015;-72
2022/08/21 04:22:26;;;;;;;19.03;5.03;;;;;;;21.11;68.00;100199.51;1774787;80;21074;-71
2022/08/21 04:24:54;;;;;;;17.77;5.00;;;;;;;21.19;67.52;100204.61;1775434;80;21181;-71
2022/08/21 04:27:23;;;;;;;14.60;4.60;;;;;;;21.26;67.21;100209.73;1775837;80;21105;-69
2022/08/21 04:29:49;;;;;;;16.43;4.07;;;;;;;21.31;66.87;100210.86;1776265;80;21078;-71
2022/08/21 04:32:25;;;;;;;20.10;5.70;;;;;;;21.39;66.72;100207.05;1775501;80;21046;-71
2022/08/21 04:35:03;;;;;;;16.73;4.97;;;;;;;21.48;66.31;100210.45;1773824;80;21086;-69
2022/08/21 04:37:31;;;;;;;18.57;4.90;;;;;;;21.53;65.92;100218.39;1775044;80;21708;-68
2022/08/21 04:39:58;;;;;;;19.17;5.33;;;;;;;21.61;65.70;100217.48;1790745;78;21121;-72
2022/08/21 04:42:25;;;;;;;20.60;4.77;;;;;;;21.68;65.65;100217.70;1787290;78;21046;-69
2022/08/21 04:44:52;;;;;;;15.83;4.73;;;;;;;21.77;65.42;100211.59;1752657;81;21082;-71
2022/08/21 04:47:19;;;;;;;19.90;5.47;;;;;;;21.82;64.37;100213.30;1773106;80;21043;-71
2022/08/21 04:49:46;;;;;;;17.13;4.33;;;;;;;21.84;63.89;100205.58;1789401;78;21403;-71
2022/08/21 04:52:15;;;;;;;20.47;4.63;;;;;;;21.90;63.94;100206.16;1788330;79;21035;-71
2022/08/21 04:54:45;;;;;;;16.47;4.63;;;;;;;22.00;63.87;100206.47;1786462;78;21541;-70
2022/08/21 04:57:11;;;;;;;14.63;4.60;;;;;;;22.10;63.09;100205.21;1753572;81;21315;-69
2022/08/21 04:59:43;;;;;;;17.03;5.23;;;;;;;22.16;62.58;100204.44;1779220;80;21031;-71
2022/08/21 05:02:09;;;;;;;18.57;5.12;;;;;;;22.14;61.24;100199.87;1773216;80;21081;-71
2022/08/21 05:04:41;;;;;;;16.50;4.40;;;;;;;22.14;60.86;100201.23;1775680;79;21066;-70
2022/08/21 05:07:12;;;;;;;18.67;5.00;;;;;;;22.13;61.10;100203.16;1775458;80;22298;-69
2022/08/21 05:09:39;;;;;;;16.23;4.40;;;;;;;22.15;61.26;100200.94;1776322;80;21062;-69
2022/08/21 05:12:06;;;;;;;18.63;4.90;;;;;;;22.21;60.91;100209.09;1776368;80;21033;-71
2022/08/21 05:14:33;;;;;;;16.07;4.67;;;;;;;22.29;61.04;100207.93;1775067;80;22339;-70
2022/08/21 05:16:59;;;;;;;13.60;4.00;;;;;;;22.38;60.63;100204.52;1776172;80;21090;-70
2022/08/21 05:19:27;;;;;;;14.13;4.40;;;;;;;22.48;60.69;100209.46;1773060;80;22043;-68
2022/08/21 05:21:54;;;;;;;15.57;4.50;;;;;;;22.60;60.33;100212.69;1774548;80;21496;-71
2022/08/21 05:24:21;;;;;;;22.77;5.10;;;;;;;22.68;60.07;100202.23;1774771;80;21139;-71
2022/08/21 05:26:48;;;;;;;17.67;4.73;;;;;;;22.72;59.58;100208.56;1774250;80;21568;-71
2022/08/21 05:29:15;;;;;;;16.23;4.60;;;;;;;22.80;59.79;100197.30;1774526;80;21125;-70
2022/08/21 05:31:41;;;;;;;16.77;4.67;;;;;;;22.93;59.64;100205.11;1775591;80;21126;-69
2022/08/21 05:34:08;;;;;;;20.67;4.97;;;;;;;22.99;58.83;100204.26;1776603;79;21038;-71
2022/08/21 05:36:34;;;;;;;19.80;5.10;;;;;;;23.04;58.50;100208.67;1775671;80;21568;-71
2022/08/21 05:39:02;;;;;;;18.67;4.63;;;;;;;23.11;58.67;100204.77;1775123;80;21096;-70
2022/08/21 05:41:28;;;;;;;15.73;4.77;;;;;;;23.18;58.28;100198.13;1774449;80;21663;-68
2022/08/21 05:43:57;;;;;;;15.70;4.10;;;;;;;23.21;57.89;100202.89;1774806;80;21065;-69
2022/08/21 05:46:24;;;;;;;16.73;4.80;;;;;;;23.22;57.61;100200.95;1776598;80;21043;-72
2022/08/21 05:48:50;;;;;;;18.20;4.97;;;;;;;23.24;57.68;100206.27;1775863;80;22385;-70
2022/08/21 05:51:17;;;;;;;19.63;4.47;;;;;;;23.25;57.47;100207.84;1789334;78;21195;-70
2022/08/21 05:53:44;;;;;;;15.93;4.50;;;;;;;23.30;57.55;100210.33;1788997;78;21110;-69
2022/08/21 05:56:11;;;;;;;21.60;4.87;;;;;;;23.37;57.41;100213.22;1788708;78;21041;-72
2022/08/21 05:58:38;;;;;;;16.63;5.23;;;;;;;23.43;57.16;100211.03;1786094;78;21533;-72
2022/08/21 06:01:04;;;;;;;15.77;4.40;;;;;;;23.49;56.96;100219.14;1776606;80;21089;-70
2022/08/21 06:03:34;;;;;;;20.07;4.67;;;;;;;23.56;57.10;100216.61;1778194;80;21406;-70
2022/08/21 06:06:01;;;;;;;15.50;4.67;;;;;;;23.63;56.92;100216.78;1775656;80;21078;-74
2022/08/21 06:08:28;;;;;;;15.17;4.20;;;;;;;23.73;56.98;100217.42;1775652;80;21216;-71
2022/08/21 06:10:58;;;;;;;17.40;4.80;;;;;;;23.79;56.37;100218.16;1755623;80;21098;-71
2022/08/21 06:13:25;;;;;;;13.57;4.30;;;;;;;23.86;56.30;100218.89;1779067;80;20924;-70
2022/08/21 06:16:03;;;;;;;13.77;3.93;;;;;;;23.94;55.93;100221.98;1776106;80;21157;-71
2022/08/21 06:18:30;;;;;;;15.63;4.70;;;;;;;24.03;55.82;100221.22;1775107;79;21109;-71
2022/08/21 06:20:57;;;;;;;18.50;4.90;;;;;;;24.06;55.43;100209.59;1747160;80;21137;-71
2022/08/21 06:23:23;;;;;;;17.63;5.00;;;;;;;24.15;55.35;100208.59;1771910;80;21059;-72
2022/08/21 06:25:50;;;;;;;18.87;4.93;;;;;;;24.26;54.89;100206.90;1788434;79;21176;-70
2022/08/21 06:28:16;;;;;;;13.60;4.47;;;;;;;24.34;54.57;100208.03;1788445;78;21113;-71
2022/08/21 06:30:43;;;;;;;18.37;4.70;;;;;;;24.41;54.48;100206.06;1780904;78;21429;-70
2022/08/21 06:33:09;;;;;;;18.23;5.33;;;;;;;24.48;54.16;100206.78;1785560;80;20964;-71
2022/08/21 06:35:37;;;;;;;18.73;5.07;;;;;;;24.49;54.04;100201.55;1783963;80;21269;-71
2022/08/21 06:38:04;;;;;;;16.90;4.60;;;;;;;24.59;54.44;100201.55;1786716;80;21034;-70
2022/08/21 06:40:31;;;;;;;17.90;4.27;;;;;;;24.72;54.57;100205.70;1780854;80;21255;-69
2022/08/21 06:42:58;;;;;;;19.80;4.87;;;;;;;24.88;53.86;100201.52;1780197;80;21054;-70
2022/08/21 06:45:25;;;;;;;15.97;4.93;;;;;;;25.02;53.64;100194.36;1780843;80;21042;-71
2022/08/21 06:47:51;;;;;;;17.40;4.37;;;;;;;25.20;53.32;100200.73;1780893;80;21113;-70
2022/08/21 06:50:19;;;;;;;15.20;4.60;;;;;;;25.37;53.24;100209.83;1788450;78;21371;-70
2022/08/21 06:52:46;;;;;;;16.20;4.50;;;;;;;25.47;52.71;100203.75;1788438;78;21459;-70
2022/08/21 06:55:12;;;;;;;19.57;4.87;;;;;;;25.58;52.42;100201.75;1789061;78;21031;-71
2022/08/21 06:57:39;;;;;;;18.10;5.13;;;;;;;25.62;51.92;100201.22;1782278;78;21010;-71
2022/08/21 07:00:10;;;;;;;13.87;4.60;;;;;;;25.67;52.02;100200.92;1787467;78;21098;-70
2022/08/21 07:02:36;;;;;;;20.93;4.57;;;;;;;25.81;52.06;100202.52;1752737;81;21494;-71
2022/08/21 07:05:04;;;;;;;17.07;5.40;;;;;;;25.95;51.46;100192.36;1787239;78;21116;-72
2022/08/21 07:07:31;;;;;;;16.47;4.77;;;;;;;26.11;51.21;100190.81;1775532;80;21132;-69
2022/08/21 07:09:58;;;;;;;14.37;4.20;;;;;;;26.19;50.82;100185.63;1775070;80;21030;-72
2022/08/21 07:12:25;;;;;;;17.50;4.80;;;;;;;25.94;50.99;100191.57;1774675;80;21109;-71
2022/08/21 07:14:52;;;;;;;21.40;4.70;;;;;;;25.81;51.65;100186.11;1779035;80;21434;-69
2022/08/21 07:17:19;;;;;;;19.50;4.57;;;;;;;26.29;50.95;100186.37;1781957;80;21231;-71
2022/08/21 07:19:46;;;;;;;16.83;4.80;;;;;;;26.49;50.68;100183.47;1780383;80;21054;-70
2022/08/21 07:22:12;;;;;;;16.87;4.57;;;;;;;26.61;50.65;100181.27;1777682;80;21569;-72
2022/08/21 07:24:39;;;;;;;13.77;4.73;;;;;;;26.76;50.01;100180.86;1778659;80;21015;-71
2022/08/21 07:27:05;;;;;;;17.10;4.80;;;;;;;26.87;49.39;100183.11;1779693;80;21142;-72
2022/08/21 07:29:33;;;;;;;15.67;4.37;;;;;;;26.87;49.33;100180.95;1779146;80;21511;-73
2022/08/21 07:32:00;;;;;;;19.17;4.50;;;;;;;26.96;49.56;100182.81;1781570;79;21560;-72
2022/08/21 07:34:26;;;;;;;15.97;4.80;;;;;;;27.02;49.32;100179.94;1779139;79;21069;-74
2022/08/21 07:36:53;;;;;;;19.93;5.07;;;;;;;27.15;49.18;100174.99;1782712;79;21070;-72
2022/08/21 07:39:19;;;;;;;15.63;4.33;;;;;;;27.25;48.82;100174.30;1780453;80;21663;-71
2022/08/21 07:41:46;;;;;;;18.77;4.33;;;;;;;27.33;48.85;100176.50;1777562;79;22088;-70
2022/08/21 07:44:13;;;;;;;23.67;4.73;;;;;;;27.38;48.04;100172.60;1782721;79;22010;-72
2022/08/21 07:46:40;;;;;;;19.17;4.17;;;;;;;27.41;47.86;100177.33;1791796;80;20976;-73
2022/08/21 07:49:06;;;;;;;13.57;4.27;;;;;;;27.46;48.14;100175.62;1782768;79;21039;-71
2022/08/21 07:51:33;;;;;;;15.47;4.50;;;;;;;27.52;48.46;100168.61;1772131;79;21074;-72
2022/08/21 07:54:00;;;;;;;17.80;4.63;;;;;;;27.57;48.00;100170.98;1815700;79;21914;-71
2022/08/21 07:56:28;;;;;;;18.80;4.60;;;;;;;27.60;47.12;100171.59;1762053;80;20952;-74
2022/08/21 07:58:55;;;;;;;14.37;4.23;;;;;;;27.59;47.14;100164.54;1771185;80;21054;-70
2022/08/21 08:01:22;;;;;;;20.50;4.63;;;;;;;27.62;46.87;100161.03;1772027;80;21014;-72
2022/08/21 08:03:50;;;;;;;20.43;4.93;;;;;;;27.59;47.08;100166.70;1772532;80;20940;-71
2022/08/21 08:06:18;;;;;;;17.83;4.27;;;;;;;27.57;46.52;100164.12;1772273;80;22098;-72
2022/08/21 08:08:45;;;;;;;15.43;4.80;;;;;;;27.55;46.96;100161.78;1772334;80;21517;-73
2022/08/21 08:11:15;;;;;;;16.20;4.70;;;;;;;27.55;46.74;100160.99;1777973;80;20967;-69
2022/08/21 08:13:44;;;;;;;23.07;5.47;;;;;;;27.58;46.02;100156.90;1772119;80;21110;-73
2022/08/21 08:16:11;;;;;;;14.10;4.67;;;;;;;27.59;46.87;100156.31;1771965;80;21031;-71
2022/08/21 08:18:38;;;;;;;18.97;4.63;;;;;;;27.65;46.61;100155.37;1771970;80;22159;-72
2022/08/21 08:21:05;;;;;;;18.10;4.80;;;;;;;27.79;47.02;100158.22;1790099;79;21008;-72
2022/08/21 08:23:32;;;;;;;16.37;4.33;;;;;;;27.86;45.96;100155.52;1789189;79;20999;-72
2022/08/21 08:25:59;;;;;;;15.97;4.57;;;;;;;27.96;45.99;100164.97;1781556;79;21531;-72
2022/08/21 08:28:26;;;;;;;20.63;4.77;;;;;;;28.02;45.75;100162.06;1778043;80;21074;-72
2022/08/21 08:30:53;;;;;;;19.63;4.50;;;;;;;28.10;46.03;100156.83;1774424;80;22577;-71
2022/08/21 08:33:20;;;;;;;18.97;4.70;;;;;;;28.18;45.46;100157.04;1772392;79;21115;-70
2022/08/21 08:35:48;;;;;;;22.43;4.67;;;;;;;28.20;45.38;100156.08;1773404;80;21606;-71
2022/08/21 08:38:18;;;;;;;18.07;6.27;;;;;;;28.25;44.94;100154.31;1778225;80;21047;-72
2022/08/21 08:41:08;;;;;;;18.67;4.85;;;;;;;28.34;45.37;100150.44;1780806;80;21086;-72
2022/08/21 08:43:34;;;;;;;25.10;5.73;;;;;;;28.51;44.71;100146.98;1782556;80;21042;-71
2022/08/21 08:46:06;;;;;;;21.80;5.03;;;;;;;28.55;44.50;100145.02;1777834;80;21072;-70
2022/08/21 08:49:02;;;;;;;18.03;4.57;;;;;;;28.57;44.05;100149.55;1775578;80;21081;-71
2022/08/21 08:51:42;;;;;;;17.03;3.60;;;;;;;28.56;43.79;100147.95;1773039;80;21021;-71
2022/08/21 08:54:16;;;;;;;16.20;4.27;;;;;;;28.50;43.56;100140.70;1775226;80;21727;-72
2022/08/21 08:56:44;;;;;;;19.03;5.20;;;;;;;28.49;43.40;100153.44;1786134;78;21246;-70
2022/08/21 08:59:21;;;;;;;16.37;3.90;;;;;;;28.49;43.54;100148.72;1775372;80;21434;-70
2022/08/21 09:01:49;;;;;;;20.93;4.53;;;;;;;28.62;43.92;100144.24;1775633;80;21081;-70
2022/08/21 09:04:21;;;;;;;15.93;4.40;;;;;;;28.73;43.33;100151.34;1775821;80;21044;-72
2022/08/21 09:06:57;;;;;;;19.00;4.80;;;;;;;28.82;42.78;100141.92;1744229;81;21015;-71
2022/08/21 09:10:01;;;;;;;21.33;4.20;;;;;;;28.90;42.70;100142.14;1774523;80;21286;-71
2022/08/21 09:12:51;;;;;;;20.70;4.93;;;;;;;28.97;41.32;100142.14;1770408;80;21031;-71
2022/08/21 09:15:56;;;;;;;16.93;4.80;;;;;;;29.04;41.44;100137.27;1770945;80;21090;-72
2022/08/21 09:18:48;;;;;;;13.17;3.80;;;;;;;29.07;41.22;100138.63;1775289;80;20983;-70
2022/08/21 09:21:30;;;;;;;23.37;4.50;;;;;;;29.13;41.47;100139.03;1770939;80;21055;-70
2022/08/21 09:24:22;;;;;;;14.87;4.27;;;;;;;29.18;41.08;100140.00;1762646;80;22093;-71
2022/08/21 09:27:17;;;;;;;19.23;4.63;;;;;;;29.29;41.28;100142.17;1789954;78;21000;-70
2022/08/21 09:29:51;;;;;;;19.73;4.37;;;;;;;29.41;40.71;100140.37;1751147;81;21039;-71
2022/08/21 09:32:25;;;;;;;16.00;3.80;;;;;;;29.41;40.64;100136.83;1776081;80;21031;-70
2022/08/21 09:35:13;;;;;;;18.00;4.47;;;;;;;29.38;40.45;100141.75;1776618;80;22372;-71
2022/08/21 09:38:02;;;;;;;18.70;4.35;;;;;;;29.35;40.58;100139.78;1750491;81;21333;-70
2022/08/21 09:40:45;;;;;;;16.10;4.20;;;;;;;29.37;40.56;100138.22;1751194;81;20971;-71
2022/08/21 09:43:18;;;;;;;12.30;3.33;;;;;;;29.46;40.20;100141.95;1752028;80;21093;-71
2022/08/21 09:45:47;;;;;;;19.10;4.23;;;;;;;29.67;40.50;100138.39;1759025;80;21561;-72
2022/08/21 09:48:21;;;;;;;16.93;3.63;;;;;;;29.78;39.32;100129.52;1752146;80;21663;-72
2022/08/21 09:50:52;;;;;;;14.53;3.53;;;;;;;29.74;38.94;100131.48;1767685;80;21133;-71
2022/08/21 09:53:28;;;;;;;18.70;4.40;;;;;;;29.73;38.24;100129.14;1781577;80;21182;-72
2022/08/21 09:59:01;;;;;;;16.73;3.90;;;;;;;29.78;39.01;100124.59;1782360;80;21078;-70
2022/08/21 10:01:40;;;;;;;14.38;3.80;;;;;;;29.90;39.04;100126.31;1754475;80;21455;-71
2022/08/21 10:04:14;;;;;;;18.33;3.53;;;;;;;29.95;38.47;100125.14;1782651;80;21222;-73
2022/08/21 10:06:48;;;;;;;15.10;3.40;;;;;;;30.00;38.68;100119.20;1782689;80;21051;-71
2022/08/21 10:09:27;;;;;;;15.17;3.60;;;;;;;30.08;38.66;100115.25;1782657;80;20999;-73
2022/08/21 10:12:26;;;;;;;14.33;3.57;;;;;;;30.22;37.90;100129.56;1783197;80;21015;-71
2022/08/21 10:15:41;;;;;;;21.73;4.43;;;;;;;30.28;37.21;100127.97;1746469;80;21055;-70
2022/08/21 10:18:37;;;;;;;23.07;4.20;;;;;;;30.34;37.79;100125.58;1784248;79;21647;-70
2022/08/21 10:21:28;;;;;;;19.53;3.97;;;;;;;30.49;37.45;100123.52;1782890;80;21466;-71
2022/08/21 10:24:24;;;;;;;21.83;4.43;;;;;;;30.63;38.03;100112.98;1782831;80;21011;-71
2022/08/21 10:27:03;;;;;;;20.93;4.00;;;;;;;30.85;37.79;100124.08;1783358;80;21145;-71
2022/08/21 10:30:04;;;;;;;16.17;3.73;;;;;;;30.88;37.11;100113.62;1754336;80;21090;-72
2022/08/21 10:33:02;;;;;;;18.30;3.98;;;;;;;30.85;36.85;100104.77;1783023;80;21159;-71
2022/08/21 10:36:12;;;;;;;14.80;3.40;;;;;;;30.81;36.44;100105.41;1782622;80;21031;-72
2022/08/21 10:39:33;;;;;;;17.30;3.87;;;;;;;30.72;36.75;100100.91;1782663;80;21046;-72
2022/08/21 10:42:33;;;;;;;20.70;4.20;;;;;;;30.74;36.73;100102.68;1783079;80;20991;-72
2022/08/21 10:45:13;;;;;;;;;;;;;;;30.77;37.33;100101.91;1785439;80;20948;-71
2022/08/21 10:47:46;;;;;;;15.30;3.73;;;;;;;30.96;36.81;100091.67;1782817;79;21461;-71
2022/08/21 10:50:23;;;;;;;21.90;4.53;;;;;;;31.13;36.23;100098.81;1783311;80;21004;-71
2022/08/21 10:53:11;;;;;;;16.07;4.10;;;;;;;31.10;36.17;100099.62;1758458;80;20999;-71
2022/08/21 10:56:13;;;;;;;20.63;3.80;;;;;;;31.01;36.81;100095.38;1783328;80;20995;-71
2022/08/21 10:59:13;;;;;;;18.07;3.67;;;;;;;31.06;37.21;100094.95;1782708;80;20960;-70
2022/08/21 11:02:07;;;;;;;16.60;3.77;;;;;;;31.28;36.83;100091.98;1783189;80;21049;-70
2022/08/21 11:04:57;;;;;;;16.13;3.80;;;;;;;31.37;36.38;100084.03;1775448;80;21481;-70
2022/08/21 11:07:42;;;;;;;21.82;4.00;;;;;;;31.49;35.62;100085.47;1783058;80;20996;-72
2022/08/21 11:10:36;;;;;;;20.00;4.37;;;;;;;31.48;35.68;100083.91;1783018;80;21038;-72
2022/08/21 11:13:40;;;;;;;13.80;3.70;;;;;;;31.56;35.85;100085.98;1782363;80;22234;-71
2022/08/21 11:16:46;;;;;;;20.73;4.20;;;;;;;31.68;35.79;100079.94;1762769;80;21561;-72
2022/08/21 11:19:50;;;;;;;18.03;3.80;;;;;;;31.61;35.16;100077.27;1782914;80;21086;-70
2022/08/21 11:22:50;;;;;;;20.65;4.22;;;;;;;31.59;35.23;100076.31;1782939;80;26347;-71
2022/08/21 11:25:34;;;;;;;15.20;3.33;;;;;;;31.58;34.47;100078.09;1773000;80;20947;-72
2022/08/21 11:28:32;;;;;;;17.83;3.50;;;;;;;31.64;35.41;100081.97;1782852;80;21054;-73
2022/08/21 11:31:30;;;;;;;16.30;3.30;;;;;;;31.77;35.30;100076.09;1782793;80;21167;-72
2022/08/21 11:35:02;;;;;;;16.40;3.92;;;;;;;31.91;35.11;100069.62;1782771;80;21416;-72
2022/08/21 11:37:59;;;;;;;17.30;3.60;;;;;;;32.02;35.45;100067.52;1784536;80;21038;-71
2022/08/21 11:40:41;;;;;;;13.77;3.00;;;;;;;32.13;35.12;100072.89;1783424;80;21054;-71
2022/08/21 11:43:48;;;;;;;18.33;3.43;;;;;;;32.17;34.76;100069.48;1782693;80;21043;-73
2022/08/21 11:46:39;;;;;;;19.73;4.20;;;;;;;32.17;34.72;100070.25;1783162;80;21109;-72